createdAt,value
2017-11-24T00:07:19.780Z,1001.9
2017-11-24T00:17:33.473Z,1001.7
2017-11-24T00:27:48.855Z,1001.6
2017-11-24T00:38:04.167Z,1001.5
2017-11-24T00:48:19.176Z,1001.4
2017-11-24T00:58:34.295Z,1001.6
2017-11-24T01:08:48.876Z,1001.5
2017-11-24T01:19:04.135Z,1001.5
2017-11-24T01:29:17.977Z,1001.3
2017-11-24T01:39:31.908Z,1001.3
2017-11-24T01:49:45.936Z,1001.1
2017-11-24T02:00:01.555Z,1000.9
2017-11-24T02:10:15.565Z,1000.6
2017-11-24T02:20:31.027Z,1000.7
2017-11-24T02:30:45.738Z,1000.4
2017-11-24T02:40:59.616Z,1000.3
2017-11-24T02:51:14.787Z,1000.1
2017-11-24T03:01:29.455Z,1000.3
2017-11-24T03:11:44.773Z,1000.5
2017-11-24T03:21:58.650Z,1000.4
2017-11-24T03:32:12.597Z,1000.1
2017-11-24T03:42:27.361Z,1000.5
2017-11-24T03:52:42.800Z,1000.5
2017-11-24T04:02:57.646Z,1000.3
2017-11-24T04:13:12.169Z,999.9
2017-11-24T04:23:26.109Z,999.8
2017-11-24T04:33:41.423Z,999.5
2017-11-24T04:43:55.302Z,998.9
2017-11-24T04:54:09.028Z,999
2017-11-24T05:04:23.188Z,998.3
2017-11-24T05:14:37.531Z,998.4
2017-11-24T05:24:51.960Z,998.8
2017-11-24T05:35:07.352Z,998.8
2017-11-24T05:45:21.458Z,998.9
2017-11-24T05:55:36.394Z,999.3
2017-11-24T06:05:50.636Z,999.1
2017-11-24T06:16:05.248Z,999.9
2017-11-24T06:26:19.984Z,1000.1
2017-11-24T06:36:35.660Z,1000
2017-11-24T06:46:49.542Z,999.2
2017-11-24T06:57:03.907Z,998.9
2017-11-24T07:07:19.190Z,998.6
2017-11-24T07:17:34.825Z,999.3
2017-11-24T07:27:49.344Z,999.6
2017-11-24T07:38:04.895Z,1000
2017-11-24T07:48:18.795Z,1000
2017-11-24T07:58:34.468Z,1000.4
2017-11-24T08:08:49.465Z,1000.7
2017-11-24T08:19:04.162Z,1000.8
2017-11-24T08:29:18.880Z,1000.8
2017-11-24T08:39:33.168Z,1000.9
2017-11-24T08:49:47.701Z,1000.9
2017-11-24T09:00:02.099Z,1000.7
2017-11-24T09:10:17.039Z,1001.2
2017-11-24T09:20:31.936Z,1001.3
2017-11-24T09:30:47.191Z,1001.5
2017-11-24T09:41:00.952Z,1001.5
2017-11-24T09:51:15.666Z,1001.8
2017-11-24T10:01:30.693Z,1001.9
2017-11-24T10:11:45.494Z,1002
2017-11-24T10:22:00.169Z,1002.1
2017-11-24T10:32:15.749Z,1002.2
2017-11-24T10:42:31.446Z,1002.3
2017-11-24T10:52:46.152Z,1002.2
2017-11-24T11:03:01.206Z,1002.5
2017-11-24T11:13:15.101Z,1002.4
2017-11-24T11:23:29.986Z,1002.6
2017-11-24T11:33:43.769Z,1002.6
2017-11-24T11:43:58.236Z,1002.9
2017-11-24T11:54:11.990Z,1003
2017-11-24T12:04:27.456Z,1003.1
2017-11-24T12:14:41.855Z,1003.1
2017-11-24T12:24:56.270Z,1003.1
2017-11-24T12:35:10.830Z,1003.2
2017-11-24T12:45:24.946Z,1003.2
2017-11-24T12:55:40.053Z,1003.2
2017-11-24T13:05:54.333Z,1003.2
2017-11-24T13:16:09.915Z,1003.1
2017-11-24T13:26:25.039Z,1003.3
2017-11-24T13:36:38.775Z,1003.5
2017-11-24T13:46:53.611Z,1003.5
2017-11-24T13:57:09.095Z,1003.6
2017-11-24T14:07:24.047Z,1003.7
2017-11-24T14:17:38.445Z,1003.9
2017-11-24T14:27:53.987Z,1004.1
2017-11-24T14:38:08.815Z,1004.1
2017-11-24T14:48:23.041Z,1004.1
2017-11-24T14:58:36.740Z,1004.3
2017-11-24T15:08:51.200Z,1004.3
2017-11-24T15:19:05.112Z,1004.5
2017-11-24T15:29:18.815Z,1004.5
2017-11-24T15:39:33.625Z,1004.5
2017-11-24T15:49:47.626Z,1004.6
2017-11-24T16:00:01.601Z,1004.5
2017-11-24T16:10:16.691Z,1004.5
2017-11-24T16:20:31.393Z,1004.7
2017-11-24T16:30:45.408Z,1004.7
2017-11-24T16:41:00.814Z,1004.8
2017-11-24T16:51:15.342Z,1005
2017-11-24T17:01:30.220Z,1004.8
2017-11-24T17:11:44.537Z,1004.8
2017-11-24T17:21:59.965Z,1004.7
2017-11-24T17:32:15.173Z,1004.7
2017-11-24T17:42:29.061Z,1004.5
2017-11-24T17:52:43.438Z,1004.7
2017-11-24T18:02:57.607Z,1004.8
2017-11-24T18:13:11.364Z,1004.8
2017-11-24T18:23:25.691Z,1005
2017-11-24T18:33:39.353Z,1005.1
2017-11-24T18:43:53.318Z,1005
2017-11-24T18:54:08.010Z,1005.2
2017-11-24T19:04:22.500Z,1005.2
2017-11-24T19:14:36.177Z,1005.2
2017-11-24T19:24:50.558Z,1005.2
2017-11-24T19:35:04.531Z,1005.3
2017-11-24T19:45:18.614Z,1005.2
2017-11-24T19:55:33.681Z,1005.3
2017-11-24T20:05:48.498Z,1005.4
2017-11-24T20:16:03.960Z,1005.4
2017-11-24T20:26:19.262Z,1005.4
2017-11-24T20:36:34.082Z,1005.3
2017-11-24T20:46:49.621Z,1005.1
2017-11-24T20:57:04.682Z,1005.1
2017-11-24T21:07:18.625Z,1005.1
2017-11-24T21:17:33.296Z,1005.2
2017-11-24T21:27:48.064Z,1005.1
2017-11-24T21:38:02.097Z,1005
2017-11-24T21:48:16.343Z,1004.9
2017-11-24T21:58:30.605Z,1004.7
2017-11-24T22:08:46.029Z,1004.7
2017-11-24T22:19:00.810Z,1004.6
2017-11-24T22:29:16.208Z,1004.8
2017-11-24T22:39:31.858Z,1004.5
2017-11-24T22:49:46.830Z,1004.5
2017-11-24T23:00:02.345Z,1004.4
2017-11-24T23:10:17.098Z,1004.3
2017-11-24T23:20:32.636Z,1004.4
2017-11-24T23:30:46.388Z,1004.1
2017-11-24T23:41:00.558Z,1004.1
2017-11-24T23:51:14.593Z,1003.9
